• Join FlightAware (Why Join?)
  • Login
  • US Flag 
01:43AM EST


 

Airport Tracker/Info


-or-


 

Live Flight TrackerFlight Track Log ✈ SWA3206 ✈ 30-Apr-2013 ✈ KSAN - KPHX

Flight Track Log - Related Links

Times and Time Zones

All times are in EDT time to prevent confusion due to time zone crossing. See the SWA3206 flight status page for this flight to view local times or setup timezone preferences in your user account.

Time Position Orientation Groundspeed Altitude Reporting Facility
EDT Latitude Longitude Course Direction KTS MPH feet Rate Location/Type
06:58PM 32.7500 -117.2333 270° West 197 227 2,000  Level Southern California TRACON
06:59PM 32.7500 -117.3000 270° West 247 284 5,700 4,140 Climbing Southern California TRACON
06:59PM 32.7428 -117.3208 248° West 239 275 7,000 3,900 Climbing Los Angeles Center
07:00PM 32.6783 -117.2983 164° South 274 315 10,900 3,240 Climbing Los Angeles Center
07:01PM 32.6478 -117.2303 118° Southeast 293 337 13,700 3,000 Climbing Los Angeles Center
07:02PM 32.6269 -117.0889 100° East 362 417 17,200 3,720 Climbing Los Angeles Center
07:03PM 32.6136 -116.9375 96° East 385 443 21,400 3,840 Climbing Los Angeles Center
07:04PM 32.6275 -116.8061 83° East 402 463 25,200 2,700 Climbing Los Angeles Center
07:05PM 32.6397 -116.6808 83° East 386 444 27,000 840 Climbing Los Angeles Center
07:06PM 32.6525 -116.5467 84° East 412 474 27,000  Level Los Angeles Center
07:07PM 32.6644 -116.4142 84° East 412 474 27,000  Level Los Angeles Center
07:08PM 32.6800 -116.2547 83° East 413 475 27,000  Level Los Angeles Center
07:09PM 32.6931 -116.1206 83° East 415 478 27,000  Level Los Angeles Center
07:10PM 32.7050 -115.9850 84° East 416 479 27,000  Level Los Angeles Center
07:11PM 32.7186 -115.8503 83° East 414 476 27,000  Level Los Angeles Center
07:12PM 32.7308 -115.7131 84° East 419 482 27,000  Level Los Angeles Center
07:13PM 32.7450 -115.5492 84° East 418 481 27,000  Level Los Angeles Center
07:14PM 32.7522 -115.4114 86° East 421 484 27,000  Level Los Angeles Center
07:15PM 32.7542 -115.2739 89° East 418 481 27,000  Level Los Angeles Center
07:17PM 32.7594 -115.1367 87° East 417 480 27,000  Level Los Angeles Center
07:18PM 32.7617 -115.0003 89° East 413 475 27,000  Level Los Angeles Center
07:19PM 32.7633 -114.8642 89° East 413 475 27,000 -540 Level Los Angeles Center
07:20PM 32.7672 -114.7006 88° East 411 473 25,900 -1,020 Descending Los Angeles Center
07:21PM 32.7689 -114.5656 89° East 407 468 25,000 -480 Descending Los Angeles Center
07:22PM 32.7725 -114.4297 88° East 410 472 25,000  Level Los Angeles Center
07:23PM 32.7742 -114.2953 89° East 409 471 25,000  Level Los Angeles Center
07:24PM 32.7747 -114.1592 90° East 412 474 25,000  Level Los Angeles Center
07:24PM 32.7761 -114.0867 89° East 412 474 25,000  Level Albuquerque Center
07:25PM 32.7792 -113.9503 88° East 413 475 25,000  Level Albuquerque Center
07:26PM 32.8161 -113.8244 71° East 404 465 25,000  Level Albuquerque Center
07:27PM 32.8725 -113.7044 61° Northeast 410 472 25,000  Level Albuquerque Center
07:28PM 32.9267 -113.5850 62° Northeast 410 472 25,000  Level Albuquerque Center
07:29PM 32.9839 -113.4653 60° Northeast 412 474 25,000  Level Albuquerque Center
07:30PM 33.0389 -113.3458 61° Northeast 411 473 25,000 -780 Level Albuquerque Center
07:31PM 33.0931 -113.2256 62° Northeast 410 472 23,500 -1,920 Descending Albuquerque Center
07:32PM 33.1464 -113.1103 61° Northeast 400 460 21,100 -2,280 Descending Albuquerque Center
07:33PM 33.1981 -113.0006 61° Northeast 385 443 18,900 -2,400 Descending Albuquerque Center
07:34PM 33.2567 -112.8703 62° Northeast 373 429 16,200 -1,500 Descending Albuquerque Center
07:35PM 33.2808 -112.7650 75° East 335 386 15,900 -480 Descending Albuquerque Center
07:36PM 33.2833 -112.6550 88° East 330 380 15,300 -1,080 Descending Albuquerque Center
07:37PM 33.2869 -112.5450 88° East 319 367 13,800 -1,560 Descending Albuquerque Center
07:38PM 33.2903 -112.4447 88° East 306 352 12,200 -1,380 Descending Albuquerque Center
07:40PM 33.2922 -112.3444 89° East 303 349 11,000 -600 Descending Albuquerque Center
07:41PM 33.2997 -112.2442 85° East 303 349 11,000 -720 Level Albuquerque Center
07:42PM 33.3078 -112.1433 85° East 306 352 9,600 -1,860 Descending Albuquerque Center
07:43PM 33.3239 -112.0472 79° East 299 344 7,200 -1,680 Descending Albuquerque Center
07:44PM 33.3436 -111.9578 75° East 279 321 6,200 -1,380 Descending Albuquerque Center
07:45PM 33.3456 -111.8603 89° East 247 284 4,400 -1,260 Descending Albuquerque Center
07:46PM 33.3881 -111.8319 29° Northeast 197 227 3,700 -720 Descending Albuquerque Center
07:47PM 33.4264 -111.8628 326° Northwest 178 205 3,000 -720 Descending Albuquerque Center
07:48PM 33.4286 -111.9211 273° West 175 201 2,300 -720 Descending Albuquerque Center
07:49PM 33.4292 -111.9692 271° West 146 168 1,600 -600 Descending Albuquerque Center
07:50PM 33.4281 -112.0164 268° West 133 153 1,100 -540 Descending Albuquerque Center